createdAt,value
2018-08-28T00:02:11.431Z,16.59
2018-08-28T00:04:40.601Z,16.60
2018-08-28T00:07:09.891Z,16.60
2018-08-28T00:09:39.069Z,16.58
2018-08-28T00:12:08.448Z,16.56
2018-08-28T00:14:37.672Z,16.55
2018-08-28T00:17:07.043Z,16.55
2018-08-28T00:19:36.340Z,16.54
2018-08-28T00:22:05.596Z,16.51
2018-08-28T00:24:34.730Z,16.51
2018-08-28T00:27:03.907Z,16.50
2018-08-28T00:29:33.064Z,16.49
2018-08-28T00:32:02.269Z,16.48
2018-08-28T00:34:31.558Z,16.49
2018-08-28T00:37:00.766Z,16.51
2018-08-28T00:39:29.903Z,16.50
2018-08-28T00:41:59.049Z,16.50
2018-08-28T00:44:28.204Z,16.48
2018-08-28T00:46:57.327Z,16.46
2018-08-28T00:49:26.598Z,16.51
2018-08-28T00:51:55.755Z,16.56
2018-08-28T00:54:24.947Z,16.59
2018-08-28T00:56:54.048Z,16.59
2018-08-28T00:59:23.215Z,16.62
2018-08-28T01:01:52.415Z,16.61
2018-08-28T01:04:21.682Z,16.61
2018-08-28T01:06:50.933Z,16.61
2018-08-28T01:09:20.239Z,16.63
2018-08-28T01:11:49.353Z,16.62
2018-08-28T01:14:18.509Z,16.61
2018-08-28T01:16:47.625Z,16.63
2018-08-28T01:19:16.734Z,16.63
2018-08-28T01:21:45.905Z,16.61
2018-08-28T01:24:15.093Z,16.60
2018-08-28T01:26:44.206Z,16.61
2018-08-28T01:29:13.319Z,16.60
2018-08-28T01:31:42.626Z,16.58
2018-08-28T01:34:11.807Z,16.58
2018-08-28T01:36:41.283Z,16.56
2018-08-28T01:39:10.511Z,16.53
2018-08-28T01:41:39.641Z,16.51
2018-08-28T01:44:08.762Z,16.49
2018-08-28T01:46:38.024Z,16.48
2018-08-28T01:49:07.334Z,16.47
2018-08-28T01:51:36.558Z,16.46
2018-08-28T01:54:05.710Z,16.43
2018-08-28T01:56:34.849Z,16.43
2018-08-28T01:59:03.996Z,16.40
2018-08-28T02:01:33.180Z,16.41
2018-08-28T02:04:02.295Z,16.39
2018-08-28T02:06:31.414Z,16.37
2018-08-28T02:09:00.600Z,16.32
2018-08-28T02:11:29.766Z,16.32
2018-08-28T02:13:58.995Z,16.31
2018-08-28T02:16:28.125Z,16.30
2018-08-28T02:18:57.253Z,16.29
2018-08-28T02:21:26.476Z,16.24
2018-08-28T02:23:55.644Z,16.20
2018-08-28T02:26:24.875Z,16.19
2018-08-28T02:28:54.027Z,16.14
2018-08-28T02:31:23.150Z,16.09
2018-08-28T02:33:52.267Z,16.06
2018-08-28T02:36:21.454Z,16.01
2018-08-28T02:38:50.588Z,15.98
2018-08-28T02:41:19.771Z,15.95
2018-08-28T02:43:48.956Z,15.88
2018-08-28T02:46:18.076Z,15.85
2018-08-28T02:48:47.207Z,15.80
2018-08-28T02:51:16.335Z,15.77
2018-08-28T02:53:45.439Z,15.70
2018-08-28T02:56:14.670Z,15.65
2018-08-28T02:58:43.734Z,15.61
2018-08-28T03:01:12.931Z,15.57
2018-08-28T03:03:42.032Z,15.50
2018-08-28T03:06:11.292Z,15.43
2018-08-28T03:08:40.407Z,15.44
2018-08-28T03:11:09.664Z,15.41
2018-08-28T03:13:38.798Z,15.35
2018-08-28T03:16:08.001Z,15.34
2018-08-28T03:18:37.119Z,15.31
2018-08-28T03:21:06.242Z,15.33
2018-08-28T03:23:35.407Z,15.32
2018-08-28T03:26:04.560Z,15.32
2018-08-28T03:28:33.850Z,15.28
2018-08-28T03:31:02.967Z,15.22
2018-08-28T03:33:32.161Z,15.19
2018-08-28T03:36:01.349Z,15.16
2018-08-28T03:38:30.505Z,15.11
2018-08-28T03:40:59.703Z,15.11
2018-08-28T03:43:28.898Z,15.08
2018-08-28T03:45:58.030Z,15.04
2018-08-28T03:48:27.226Z,15.02
2018-08-28T03:50:56.334Z,14.96
2018-08-28T03:53:25.520Z,14.90
2018-08-28T03:55:54.715Z,14.86
2018-08-28T03:58:23.842Z,14.83
2018-08-28T04:00:52.971Z,14.80
2018-08-28T04:03:22.121Z,14.84
2018-08-28T04:05:51.370Z,14.86
2018-08-28T04:08:20.515Z,14.83
2018-08-28T04:10:49.661Z,14.85
2018-08-28T04:13:18.767Z,14.78
2018-08-28T04:15:47.979Z,14.86
2018-08-28T04:18:17.175Z,14.86
2018-08-28T04:20:46.439Z,14.85
2018-08-28T04:23:15.594Z,14.90
2018-08-28T04:25:44.858Z,14.81
2018-08-28T04:28:14.053Z,14.77
2018-08-28T04:30:43.333Z,14.72
2018-08-28T04:33:12.449Z,14.67
2018-08-28T04:35:41.654Z,14.69
2018-08-28T04:38:10.803Z,14.73
2018-08-28T04:40:39.977Z,14.93
2018-08-28T04:43:09.123Z,14.81
2018-08-28T04:45:38.248Z,14.80
2018-08-28T04:48:07.409Z,14.81
2018-08-28T04:50:36.568Z,14.81
2018-08-28T04:53:05.774Z,14.76
2018-08-28T04:55:35.006Z,14.84
2018-08-28T04:58:04.252Z,14.92
2018-08-28T05:00:33.551Z,14.93
2018-08-28T05:03:02.711Z,14.94
2018-08-28T05:05:31.919Z,15.00
2018-08-28T05:08:01.078Z,15.04
2018-08-28T05:10:30.942Z,15.11
2018-08-28T05:13:00.069Z,15.12
2018-08-28T05:15:29.197Z,15.16
2018-08-28T05:17:58.383Z,15.21
2018-08-28T05:20:27.549Z,15.28
2018-08-28T05:22:56.654Z,15.37
2018-08-28T05:25:25.894Z,15.39
2018-08-28T05:27:55.075Z,15.46
2018-08-28T05:30:24.559Z,15.60
2018-08-28T05:32:53.632Z,15.72
2018-08-28T05:35:22.747Z,15.83
2018-08-28T05:37:51.961Z,15.97
2018-08-28T05:40:21.176Z,16.12
2018-08-28T05:42:50.372Z,16.16
2018-08-28T05:45:19.663Z,16.26
2018-08-28T05:47:48.783Z,16.18
2018-08-28T05:50:17.958Z,16.41
2018-08-28T05:52:47.206Z,16.58
2018-08-28T05:55:16.358Z,16.68
2018-08-28T05:57:45.563Z,16.81
2018-08-28T06:00:15.155Z,17.03
2018-08-28T06:02:44.446Z,16.97
2018-08-28T06:05:13.612Z,17.36
2018-08-28T06:07:42.770Z,17.60
2018-08-28T06:10:11.907Z,17.37
2018-08-28T06:12:41.059Z,17.77
2018-08-28T06:15:11.778Z,17.87
2018-08-28T06:17:40.991Z,18.02
2018-08-28T06:20:10.116Z,18.38
2018-08-28T06:22:39.291Z,18.43
2018-08-28T06:25:08.439Z,18.49
2018-08-28T06:27:37.567Z,18.76
2018-08-28T06:30:07.437Z,18.90
2018-08-28T06:32:36.655Z,19.15
2018-08-28T06:35:06.460Z,19.49
2018-08-28T06:37:35.628Z,19.75
2018-08-28T06:40:04.897Z,19.62
2018-08-28T06:42:34.058Z,19.91
2018-08-28T06:45:03.202Z,20.46
2018-08-28T06:47:32.490Z,20.38
2018-08-28T06:50:01.750Z,20.80
2018-08-28T06:52:30.939Z,20.81
2018-08-28T06:55:00.080Z,21.06
2018-08-28T06:57:29.318Z,21.24
2018-08-28T06:59:58.771Z,21.37
2018-08-28T07:02:28.046Z,21.69
2018-08-28T07:04:57.287Z,21.10
2018-08-28T07:07:26.542Z,21.83
2018-08-28T07:09:55.731Z,22.33
2018-08-28T07:12:24.985Z,22.64
2018-08-28T07:14:54.158Z,22.64
2018-08-28T07:17:23.338Z,22.31
2018-08-28T07:19:52.477Z,22.68
2018-08-28T07:22:21.719Z,22.68
2018-08-28T07:24:50.908Z,23.14
2018-08-28T07:27:20.011Z,23.04
2018-08-28T07:29:49.131Z,23.37
2018-08-28T07:32:18.356Z,22.84
2018-08-28T07:34:47.510Z,23.27
2018-08-28T07:37:16.673Z,23.20
2018-08-28T07:39:45.843Z,23.35
2018-08-28T07:42:14.977Z,23.42
2018-08-28T07:44:44.093Z,23.74
2018-08-28T07:47:13.293Z,23.44
2018-08-28T07:49:42.472Z,23.54
2018-08-28T07:52:11.755Z,24.09
2018-08-28T07:54:41.222Z,24.42
2018-08-28T07:57:10.355Z,23.94
2018-08-28T07:59:39.479Z,24.32
2018-08-28T08:02:08.703Z,24.13
2018-08-28T08:04:37.875Z,24.06
2018-08-28T08:07:07.423Z,24.38
2018-08-28T08:09:36.594Z,24.75
2018-08-28T08:12:05.787Z,24.82
2018-08-28T08:14:34.895Z,25.20
2018-08-28T08:17:04.081Z,25.33
2018-08-28T08:19:33.240Z,25.56
2018-08-28T08:22:02.437Z,25.58
2018-08-28T08:24:31.593Z,25.69
2018-08-28T08:27:01.080Z,25.43
2018-08-28T08:29:30.375Z,25.07
2018-08-28T08:31:59.691Z,25.17
2018-08-28T08:34:28.837Z,25.20
2018-08-28T08:36:58.029Z,25.81
2018-08-28T08:39:27.243Z,26.11
2018-08-28T08:41:56.409Z,26.22
2018-08-28T08:44:25.612Z,26.44
2018-08-28T08:46:54.828Z,26.47
2018-08-28T08:49:24.064Z,26.25
2018-08-28T08:51:53.284Z,25.67
2018-08-28T08:54:22.492Z,25.05
2018-08-28T08:56:51.767Z,24.59
2018-08-28T08:59:20.983Z,24.40
2018-08-28T09:01:50.206Z,24.46
2018-08-28T09:04:19.402Z,24.37
2018-08-28T09:06:48.570Z,24.79
2018-08-28T09:09:17.691Z,24.48
2018-08-28T09:11:46.878Z,25.02
2018-08-28T09:14:16.060Z,25.30
2018-08-28T09:16:45.303Z,25.77
2018-08-28T09:19:14.527Z,26.15
2018-08-28T09:21:43.702Z,26.05
2018-08-28T09:24:13.001Z,26.03
2018-08-28T09:26:42.158Z,26.45
2018-08-28T09:29:11.255Z,26.72
2018-08-28T09:31:40.493Z,26.56
2018-08-28T09:34:09.631Z,26.58
2018-08-28T09:36:38.756Z,26.94
2018-08-28T09:39:08.198Z,26.55
2018-08-28T09:41:37.704Z,26.04
2018-08-28T09:44:07.092Z,26.13
2018-08-28T09:49:17.377Z,25.98
2018-08-28T09:51:46.506Z,25.98
2018-08-28T09:54:18.551Z,25.62
2018-08-28T09:56:47.707Z,25.94
2018-08-28T09:59:16.927Z,26.19
2018-08-28T10:01:47.156Z,27.12
2018-08-28T10:04:17.262Z,27.01
2018-08-28T10:06:46.634Z,27.67
2018-08-28T10:09:17.203Z,28.00
2018-08-28T10:11:46.594Z,28.15
2018-08-28T10:14:15.755Z,27.43
2018-08-28T10:16:44.874Z,27.07
2018-08-28T10:19:14.001Z,27.07
2018-08-28T10:21:43.547Z,26.30
2018-08-28T10:24:12.698Z,26.82
2018-08-28T10:26:41.805Z,27.51
2018-08-28T10:29:10.926Z,27.01
2018-08-28T10:31:40.060Z,27.07
2018-08-28T10:34:09.183Z,27.13
2018-08-28T10:36:38.310Z,26.76
2018-08-28T10:39:09.184Z,26.44
2018-08-28T10:41:38.305Z,25.89
2018-08-28T10:44:07.539Z,25.39
2018-08-28T10:46:36.945Z,25.56
2018-08-28T10:49:06.243Z,25.27
2018-08-28T10:51:35.367Z,25.11
2018-08-28T10:54:04.518Z,25.38
2018-08-28T10:56:33.622Z,25.07
2018-08-28T10:59:02.805Z,25.47
2018-08-28T11:01:31.943Z,25.93
2018-08-28T11:04:07.691Z,25.70
2018-08-28T11:06:37.015Z,25.90
2018-08-28T11:09:06.723Z,25.23
2018-08-28T11:11:35.889Z,25.33
2018-08-28T11:14:05.115Z,25.54
2018-08-28T11:16:34.255Z,25.49
2018-08-28T11:19:03.560Z,25.34
2018-08-28T11:21:32.688Z,26.20
2018-08-28T11:24:01.853Z,26.18
2018-08-28T11:26:30.963Z,26.05
2018-08-28T11:29:00.204Z,26.71
2018-08-28T11:31:29.485Z,27.18
2018-08-28T11:33:58.494Z,27.60
2018-08-28T11:36:27.703Z,27.43
2018-08-28T11:38:56.858Z,27.77
2018-08-28T11:41:26.067Z,27.69
2018-08-28T11:43:55.467Z,27.75
2018-08-28T11:46:24.662Z,27.34
2018-08-28T11:48:53.864Z,28.27
2018-08-28T11:51:23.077Z,27.93
2018-08-28T11:53:52.231Z,27.37
2018-08-28T11:56:21.369Z,26.93
2018-08-28T11:58:50.582Z,26.84
2018-08-28T12:01:19.820Z,26.34
2018-08-28T12:03:48.967Z,26.41
2018-08-28T12:06:18.421Z,25.95
2018-08-28T12:08:47.590Z,25.90
2018-08-28T12:11:16.806Z,26.47
2018-08-28T12:13:46.254Z,26.41
2018-08-28T12:16:15.537Z,25.95
2018-08-28T12:18:44.665Z,27.00
2018-08-28T12:21:15.441Z,26.98
2018-08-28T12:23:44.561Z,27.05
2018-08-28T12:26:13.691Z,26.36
2018-08-28T12:28:43.201Z,27.10
2018-08-28T12:31:15.756Z,27.20
2018-08-28T12:33:46.266Z,27.67
2018-08-28T12:36:17.920Z,27.65
2018-08-28T12:38:48.733Z,27.96
2018-08-28T12:41:19.309Z,28.39
2018-08-28T12:43:48.679Z,28.46
2018-08-28T12:46:18.696Z,28.00
2018-08-28T12:48:47.975Z,28.39
2018-08-28T12:51:17.208Z,28.55
2018-08-28T12:53:46.288Z,28.31
2018-08-28T12:56:15.435Z,28.01
2018-08-28T12:58:44.608Z,28.19
2018-08-28T13:01:13.758Z,28.73
2018-08-28T13:03:43.000Z,28.79
2018-08-28T13:06:12.175Z,28.31
2018-08-28T13:08:41.310Z,27.39
2018-08-28T13:11:10.491Z,28.00
2018-08-28T13:13:39.591Z,28.03
2018-08-28T13:16:08.793Z,28.05
2018-08-28T13:18:37.898Z,28.18
2018-08-28T13:21:07.063Z,28.18
2018-08-28T13:23:36.188Z,26.70
2018-08-28T13:26:05.537Z,26.29
2018-08-28T13:28:34.559Z,26.23
2018-08-28T13:31:03.706Z,26.94
2018-08-28T13:33:32.884Z,26.87
2018-08-28T13:36:02.103Z,27.58
2018-08-28T13:38:31.264Z,27.65
2018-08-28T13:41:00.412Z,27.28
2018-08-28T13:43:29.524Z,27.41
2018-08-28T13:45:58.623Z,27.13
2018-08-28T13:48:27.939Z,28.03
2018-08-28T13:50:57.085Z,27.80
2018-08-28T13:53:26.209Z,27.83
2018-08-28T13:55:55.404Z,27.80
2018-08-28T13:58:24.525Z,27.05
2018-08-28T14:00:53.680Z,26.69
2018-08-28T14:03:22.847Z,26.68
2018-08-28T14:05:52.045Z,26.55
2018-08-28T14:08:21.159Z,26.59
2018-08-28T14:10:50.287Z,26.83
2018-08-28T14:13:19.524Z,26.92
2018-08-28T14:15:48.560Z,26.64
2018-08-28T14:18:17.751Z,26.32
2018-08-28T14:20:46.966Z,27.18
2018-08-28T14:23:16.088Z,26.95
2018-08-28T14:25:45.267Z,26.99
2018-08-28T14:28:14.378Z,27.01
2018-08-28T14:30:43.503Z,26.92
2018-08-28T14:33:12.656Z,27.30
2018-08-28T14:35:42.015Z,27.23
2018-08-28T14:38:10.959Z,26.82
2018-08-28T14:40:40.114Z,27.06
2018-08-28T14:43:09.235Z,27.17
2018-08-28T14:45:38.411Z,26.27
2018-08-28T14:48:07.571Z,26.58
2018-08-28T14:50:36.792Z,26.27
2018-08-28T14:53:05.889Z,25.87
2018-08-28T14:55:35.094Z,26.10
2018-08-28T14:58:04.277Z,26.39
2018-08-28T15:00:33.593Z,25.82
2018-08-28T15:03:02.836Z,25.66
2018-08-28T15:05:31.968Z,25.87
2018-08-28T15:08:01.121Z,25.59
2018-08-28T15:10:30.283Z,25.63
2018-08-28T15:12:59.394Z,25.36
2018-08-28T15:15:28.560Z,25.25
2018-08-28T15:17:57.742Z,25.55
2018-08-28T15:20:26.883Z,25.12
2018-08-28T15:22:56.067Z,25.06
2018-08-28T15:25:25.233Z,25.37
2018-08-28T15:27:54.592Z,25.12
2018-08-28T15:30:24.213Z,24.83
2018-08-28T15:32:53.368Z,25.04
2018-08-28T15:35:22.491Z,24.63
2018-08-28T15:37:51.904Z,25.06
2018-08-28T15:40:21.422Z,24.98
2018-08-28T15:42:50.563Z,24.76
2018-08-28T15:45:20.207Z,24.86
2018-08-28T15:47:49.322Z,24.91
2018-08-28T15:50:18.505Z,24.78
2018-08-28T15:52:47.851Z,24.93
2018-08-28T15:55:17.123Z,24.99
2018-08-28T15:57:46.308Z,25.01
2018-08-28T16:00:15.632Z,24.93
2018-08-28T16:02:44.802Z,24.78
2018-08-28T16:05:14.131Z,24.57
2018-08-28T16:07:43.347Z,24.56
2018-08-28T16:10:12.455Z,24.39
2018-08-28T16:12:41.649Z,24.47
2018-08-28T16:15:11.501Z,24.52
2018-08-28T16:17:40.652Z,24.58
2018-08-28T16:20:09.836Z,24.53
2018-08-28T16:22:50.611Z,24.38
2018-08-28T16:25:19.746Z,24.39
2018-08-28T16:27:49.225Z,24.27
2018-08-28T16:30:19.157Z,24.28
2018-08-28T16:32:48.451Z,24.19
2018-08-28T16:35:17.679Z,24.31
2018-08-28T16:37:47.126Z,24.33
2018-08-28T16:40:23.063Z,24.25
2018-08-28T16:42:52.316Z,24.21
2018-08-28T16:45:22.125Z,24.19
2018-08-28T16:47:51.316Z,24.13
2018-08-28T16:50:20.730Z,24.15
2018-08-28T16:52:49.924Z,23.98
2018-08-28T16:55:19.142Z,24.03
2018-08-28T16:57:48.379Z,24.01
2018-08-28T17:00:19.102Z,23.95
2018-08-28T17:02:48.366Z,24.06
2018-08-28T17:05:17.532Z,23.98
2018-08-28T17:07:46.760Z,23.96
2018-08-28T17:10:15.887Z,23.98
2018-08-28T17:12:45.162Z,23.89
2018-08-28T17:15:14.790Z,23.89
2018-08-28T17:17:44.074Z,23.89
2018-08-28T17:20:13.210Z,23.77
2018-08-28T17:22:42.351Z,23.75
2018-08-28T17:25:11.770Z,23.68
2018-08-28T17:27:40.981Z,23.61
2018-08-28T17:32:38.648Z,23.61
2018-08-28T17:35:08.712Z,23.58
2018-08-28T17:37:38.076Z,23.50
2018-08-28T17:40:07.219Z,23.50
2018-08-28T17:42:36.472Z,23.51
2018-08-28T17:45:05.704Z,23.46
2018-08-28T17:47:34.963Z,23.45
2018-08-28T17:50:04.158Z,23.38
2018-08-28T17:52:33.323Z,23.25
2018-08-28T17:55:02.467Z,23.20
2018-08-28T17:57:31.728Z,23.10
2018-08-28T18:00:00.968Z,23.08
2018-08-28T18:02:30.054Z,23.00
2018-08-28T18:04:59.263Z,22.97
2018-08-28T18:07:28.449Z,22.94
2018-08-28T18:09:57.600Z,22.94
2018-08-28T18:12:26.747Z,22.86
2018-08-28T18:14:55.892Z,22.81
2018-08-28T18:17:25.068Z,22.78
2018-08-28T18:19:54.288Z,22.72
2018-08-28T18:22:23.618Z,22.89
2018-08-28T18:24:52.792Z,22.77
2018-08-28T18:27:22.055Z,22.73
2018-08-28T18:29:51.225Z,22.72
2018-08-28T18:32:20.441Z,22.67
2018-08-28T18:34:49.564Z,22.66
2018-08-28T18:37:18.893Z,22.52
2018-08-28T18:39:47.999Z,22.49
2018-08-28T18:42:17.164Z,22.38
2018-08-28T18:44:46.406Z,22.31
2018-08-28T18:47:15.588Z,22.41
2018-08-28T18:49:44.771Z,22.36
2018-08-28T18:52:14.148Z,22.27
2018-08-28T18:54:43.383Z,22.23
2018-08-28T18:57:12.768Z,22.27
2018-08-28T18:59:42.112Z,22.13
2018-08-28T19:02:11.326Z,22.30
2018-08-28T19:04:40.459Z,22.15
2018-08-28T19:07:09.774Z,22.09
2018-08-28T19:09:39.083Z,22.15
2018-08-28T19:12:08.315Z,22.05
2018-08-28T19:14:37.485Z,22.09
2018-08-28T19:17:06.634Z,22.02
2018-08-28T19:19:35.776Z,22.00
2018-08-28T19:22:04.979Z,21.94
2018-08-28T19:24:34.184Z,21.93
2018-08-28T19:27:03.395Z,21.84
2018-08-28T19:29:32.603Z,21.80
2018-08-28T19:32:01.823Z,21.70
2018-08-28T19:34:30.959Z,21.76
2018-08-28T19:37:00.266Z,21.63
2018-08-28T19:39:29.996Z,21.66
2018-08-28T19:41:59.180Z,21.75
2018-08-28T19:44:28.416Z,21.72
2018-08-28T19:46:57.605Z,21.61
2018-08-28T19:49:26.839Z,21.70
2018-08-28T19:51:56.057Z,21.63
2018-08-28T19:54:25.203Z,21.57
2018-08-28T19:56:54.373Z,21.54
2018-08-28T19:59:23.615Z,21.49
2018-08-28T20:01:52.746Z,21.45
2018-08-28T20:04:22.313Z,21.36
2018-08-28T20:06:51.495Z,21.29
2018-08-28T20:09:20.703Z,21.24
2018-08-28T20:11:50.072Z,21.28
2018-08-28T20:14:19.535Z,21.18
2018-08-28T20:16:48.656Z,21.21
2018-08-28T20:19:17.811Z,21.13
2018-08-28T20:21:47.004Z,21.19
2018-08-28T20:24:16.187Z,21.09
2018-08-28T20:26:45.380Z,21.09
2018-08-28T20:29:14.478Z,20.95
2018-08-28T20:31:43.708Z,20.95
2018-08-28T20:34:12.910Z,20.91
2018-08-28T20:36:42.014Z,21.02
2018-08-28T20:39:11.163Z,20.92
2018-08-28T20:41:40.999Z,21.04
2018-08-28T20:44:10.194Z,20.88
2018-08-28T20:46:39.327Z,20.83
2018-08-28T20:49:08.522Z,20.94
2018-08-28T20:51:38.382Z,20.80
2018-08-28T20:54:07.640Z,20.87
2018-08-28T20:56:36.819Z,20.81
2018-08-28T20:59:06.541Z,20.74
2018-08-28T21:01:35.743Z,20.72
2018-08-28T21:04:04.927Z,20.69
2018-08-28T21:06:34.211Z,20.68
2018-08-28T21:09:04.207Z,20.65
2018-08-28T21:11:33.340Z,20.80
2018-08-28T21:14:02.566Z,20.76
2018-08-28T21:16:31.679Z,20.69
2018-08-28T21:19:00.934Z,20.71
2018-08-28T21:21:30.197Z,20.60
2018-08-28T21:23:59.441Z,20.61
2018-08-28T21:26:28.571Z,20.64
2018-08-28T21:28:57.766Z,20.64
2018-08-28T21:31:26.915Z,20.57
2018-08-28T21:33:56.123Z,20.39
2018-08-28T21:36:25.351Z,20.16
2018-08-28T21:38:54.562Z,20.07
2018-08-28T21:41:23.708Z,19.83
2018-08-28T21:43:52.853Z,19.85
2018-08-28T21:46:21.985Z,19.82
2018-08-28T21:48:51.078Z,19.78
2018-08-28T21:51:20.358Z,19.66
2018-08-28T21:53:49.442Z,19.59
2018-08-28T21:56:18.600Z,19.59
2018-08-28T21:58:47.738Z,19.62
2018-08-28T22:01:16.884Z,19.54
2018-08-28T22:03:46.107Z,19.48
2018-08-28T22:06:20.562Z,19.56
2018-08-28T22:08:49.686Z,19.49
2018-08-28T22:11:18.913Z,19.42
2018-08-28T22:13:48.050Z,19.42
2018-08-28T22:16:17.211Z,19.31
2018-08-28T22:18:46.354Z,19.25
2018-08-28T22:21:16.314Z,19.23
2018-08-28T22:23:45.563Z,19.08
2018-08-28T22:26:14.688Z,19.08
2018-08-28T22:28:43.843Z,19.10
2018-08-28T22:31:13.008Z,19.08
2018-08-28T22:33:42.162Z,19.08
2018-08-28T22:36:11.339Z,19.05
2018-08-28T22:38:40.539Z,19.02
2018-08-28T22:41:09.714Z,18.95
2018-08-28T22:43:38.919Z,19.01
2018-08-28T22:46:08.110Z,18.96
2018-08-28T22:48:37.540Z,18.95
2018-08-28T22:51:06.829Z,18.91
2018-08-28T22:53:35.995Z,18.95
2018-08-28T22:56:05.295Z,18.93
2018-08-28T22:58:34.536Z,18.99
2018-08-28T23:01:03.777Z,18.93
2018-08-28T23:03:33.031Z,18.81
2018-08-28T23:06:02.173Z,18.81
2018-08-28T23:08:31.331Z,18.80
2018-08-28T23:11:00.462Z,18.77
2018-08-28T23:13:29.636Z,18.74
2018-08-28T23:15:58.804Z,18.69
2018-08-28T23:18:28.027Z,18.67
2018-08-28T23:20:57.227Z,18.64
2018-08-28T23:23:26.417Z,18.60
2018-08-28T23:25:55.617Z,18.57
2018-08-28T23:28:24.814Z,18.55
2018-08-28T23:30:53.967Z,18.53
2018-08-28T23:33:23.087Z,18.49
2018-08-28T23:35:52.338Z,18.50
2018-08-28T23:38:21.518Z,18.44
2018-08-28T23:40:50.631Z,18.44
2018-08-28T23:43:19.752Z,18.36
2018-08-28T23:45:48.891Z,18.35
2018-08-28T23:48:18.993Z,18.26
2018-08-28T23:50:48.172Z,18.24
2018-08-28T23:53:17.412Z,18.26
2018-08-28T23:55:46.557Z,18.20
2018-08-28T23:58:15.760Z,18.13
